createdAt,value
2023-05-23T00:00:11.870Z,50.92
2023-05-23T00:03:00.755Z,51.14
2023-05-23T00:05:30.017Z,51.03
2023-05-23T00:07:58.850Z,51.26
2023-05-23T00:10:27.810Z,51.44
2023-05-23T00:12:57.658Z,51.51
2023-05-23T00:15:26.678Z,51.57
2023-05-23T00:17:55.670Z,51.79
2023-05-23T00:20:24.626Z,51.78
2023-05-23T00:22:54.000Z,51.73
2023-05-23T00:25:23.078Z,51.87
2023-05-23T00:27:52.084Z,52.03
2023-05-23T00:30:21.047Z,52.13
2023-05-23T00:32:50.181Z,52.17
2023-05-23T00:35:19.325Z,52.41
2023-05-23T00:37:51.339Z,52.39
2023-05-23T00:40:20.603Z,52.63
2023-05-23T00:42:49.775Z,52.50
2023-05-23T00:45:18.944Z,52.76
2023-05-23T00:47:50.910Z,52.79
2023-05-23T00:50:21.121Z,53.02
2023-05-23T00:52:50.751Z,53.11
2023-05-23T00:55:20.057Z,53.24
2023-05-23T00:57:49.148Z,53.38
2023-05-23T01:00:19.532Z,53.35
2023-05-23T01:02:50.841Z,53.48
2023-05-23T01:05:21.930Z,53.47
2023-05-23T01:07:51.319Z,53.54
2023-05-23T01:10:23.426Z,53.66
2023-05-23T01:13:07.382Z,53.78
2023-05-23T01:15:42.315Z,53.81
2023-05-23T01:18:17.846Z,53.97
2023-05-23T01:20:52.439Z,54.02
2023-05-23T01:24:07.830Z,54.10
2023-05-23T01:26:49.767Z,54.23
2023-05-23T01:29:24.813Z,54.18
2023-05-23T01:31:57.679Z,54.27
2023-05-23T01:34:26.782Z,54.31
2023-05-23T01:36:56.246Z,54.28
2023-05-23T01:39:25.330Z,54.46
2023-05-23T01:41:55.346Z,54.42
2023-05-23T01:44:24.364Z,54.47
2023-05-23T01:46:53.596Z,54.45
2023-05-23T01:49:24.214Z,54.70
2023-05-23T01:51:53.486Z,54.64
2023-05-23T01:54:23.512Z,54.85
2023-05-23T01:56:52.631Z,54.82
2023-05-23T01:59:21.669Z,54.82
2023-05-23T02:01:50.933Z,54.91
2023-05-23T02:04:19.904Z,54.93
2023-05-23T02:06:48.842Z,54.95
2023-05-23T02:09:17.764Z,55.13
2023-05-23T02:11:46.872Z,55.19
2023-05-23T02:14:16.093Z,55.14
2023-05-23T02:16:45.430Z,55.10
2023-05-23T02:19:14.494Z,55.16
2023-05-23T02:21:43.458Z,55.18
2023-05-23T02:24:12.432Z,55.32
2023-05-23T02:26:41.778Z,55.26
2023-05-23T02:29:11.042Z,55.39
2023-05-23T02:31:40.336Z,55.39
2023-05-23T02:34:09.289Z,55.49
2023-05-23T02:36:38.909Z,55.53
2023-05-23T02:39:07.725Z,55.62
2023-05-23T02:41:37.040Z,55.69
2023-05-23T02:44:06.299Z,55.73
2023-05-23T02:46:35.375Z,55.78
2023-05-23T02:49:04.496Z,55.75
2023-05-23T02:51:33.618Z,55.85
2023-05-23T02:54:02.755Z,55.81
2023-05-23T02:56:31.894Z,55.86
2023-05-23T02:59:00.920Z,55.85
2023-05-23T03:01:29.984Z,55.94
2023-05-23T03:03:58.985Z,55.98
2023-05-23T03:06:28.354Z,56.00
2023-05-23T03:08:57.293Z,55.92
2023-05-23T03:11:26.378Z,55.97
2023-05-23T03:13:55.257Z,55.98
2023-05-23T03:16:24.287Z,55.96
2023-05-23T03:18:53.339Z,56.00
2023-05-23T03:21:22.275Z,56.02
2023-05-23T03:23:51.293Z,56.01
2023-05-23T03:26:21.373Z,55.99
2023-05-23T03:28:50.946Z,55.91
2023-05-23T03:31:19.936Z,55.84
2023-05-23T03:33:49.341Z,55.87
2023-05-23T03:36:18.376Z,55.84
2023-05-23T03:38:47.491Z,55.74
2023-05-23T03:41:16.664Z,55.66
2023-05-23T03:43:46.084Z,55.65
2023-05-23T03:46:15.073Z,55.68
2023-05-23T03:48:44.222Z,55.77
2023-05-23T03:51:13.698Z,55.82
2023-05-23T03:53:42.814Z,55.76
2023-05-23T03:56:11.777Z,55.81
2023-05-23T03:58:40.742Z,55.73
2023-05-23T04:01:10.258Z,55.73
2023-05-23T04:03:39.079Z,55.78
2023-05-23T04:06:08.650Z,55.86
2023-05-23T04:08:37.909Z,55.85
2023-05-23T04:11:07.167Z,55.70
2023-05-23T04:13:36.571Z,55.69
2023-05-23T04:16:07.095Z,55.56
2023-05-23T04:18:38.585Z,55.62
2023-05-23T04:21:08.068Z,55.67
2023-05-23T04:23:37.335Z,55.60
2023-05-23T04:26:06.506Z,55.65
2023-05-23T04:28:37.121Z,55.65
2023-05-23T04:31:06.328Z,55.71
2023-05-23T04:33:35.473Z,55.57
2023-05-23T04:36:08.705Z,55.49
2023-05-23T04:38:40.580Z,55.56
2023-05-23T04:41:12.909Z,55.55
2023-05-23T04:43:42.265Z,55.57
2023-05-23T04:46:13.620Z,55.51
2023-05-23T04:48:44.208Z,55.56
2023-05-23T04:51:13.199Z,55.52
2023-05-23T04:53:43.246Z,55.60
2023-05-23T04:56:12.355Z,55.60
2023-05-23T04:58:41.742Z,55.38
2023-05-23T05:01:11.191Z,55.46
2023-05-23T05:03:40.457Z,55.35
2023-05-23T05:06:09.701Z,55.43
2023-05-23T05:08:40.146Z,55.20
2023-05-23T05:11:10.456Z,55.17
2023-05-23T05:13:39.264Z,55.27
2023-05-23T05:16:08.682Z,55.30
2023-05-23T05:18:38.913Z,55.20
2023-05-23T05:21:07.989Z,55.44
2023-05-23T05:23:36.974Z,55.33
2023-05-23T05:26:06.460Z,55.42
2023-05-23T05:28:36.104Z,55.41
2023-05-23T05:31:05.626Z,55.56
2023-05-23T05:33:35.741Z,55.45
2023-05-23T05:36:06.742Z,55.45
2023-05-23T05:38:35.875Z,55.44
2023-05-23T05:41:06.288Z,55.45
2023-05-23T05:43:37.205Z,55.56
2023-05-23T05:46:06.546Z,55.72
2023-05-23T05:48:35.677Z,55.50
2023-05-23T05:51:05.407Z,55.33
2023-05-23T05:53:34.512Z,55.33
2023-05-23T05:56:04.428Z,55.17
2023-05-23T05:58:33.518Z,54.88
2023-05-23T06:01:03.128Z,54.88
2023-05-23T06:03:32.223Z,54.94
2023-05-23T06:06:01.519Z,54.97
2023-05-23T06:08:30.501Z,54.91
2023-05-23T06:10:59.693Z,54.96
2023-05-23T06:13:28.727Z,54.73
2023-05-23T06:15:57.999Z,54.69
2023-05-23T06:18:27.128Z,54.35
2023-05-23T06:20:56.175Z,54.20
2023-05-23T06:23:25.159Z,54.10
2023-05-23T06:25:54.264Z,54.07
2023-05-23T06:28:23.406Z,53.95
2023-05-23T06:30:52.384Z,53.72
2023-05-23T06:33:21.471Z,53.69
2023-05-23T06:35:50.462Z,53.50
2023-05-23T06:38:19.542Z,53.57
2023-05-23T06:40:48.803Z,53.21
2023-05-23T06:43:17.750Z,53.22
2023-05-23T06:45:47.925Z,53.07
2023-05-23T06:48:17.273Z,52.86
2023-05-23T06:50:47.532Z,52.62
2023-05-23T06:53:19.266Z,52.34
2023-05-23T06:55:48.543Z,52.24
2023-05-23T06:58:17.500Z,52.14
2023-05-23T07:00:46.517Z,51.88
2023-05-23T07:03:16.178Z,51.56
2023-05-23T07:05:45.297Z,51.58
2023-05-23T07:08:14.526Z,51.31
2023-05-23T07:10:43.609Z,50.55
2023-05-23T07:13:12.836Z,49.92
2023-05-23T07:15:41.935Z,49.70
2023-05-23T07:18:11.132Z,49.24
2023-05-23T07:20:40.307Z,48.87
2023-05-23T07:23:09.694Z,48.41
2023-05-23T07:25:42.172Z,47.91
2023-05-23T07:28:13.473Z,47.45
2023-05-23T07:30:43.445Z,47.01
2023-05-23T07:33:12.453Z,46.84
2023-05-23T07:35:43.933Z,46.84
2023-05-23T07:38:12.831Z,45.87
2023-05-23T07:40:42.034Z,45.42
2023-05-23T07:43:11.157Z,45.13
2023-05-23T07:45:40.121Z,44.78
2023-05-23T07:48:09.606Z,44.49
2023-05-23T07:50:40.244Z,44.15
2023-05-23T07:53:09.410Z,43.66
2023-05-23T07:55:38.470Z,43.04
2023-05-23T07:58:07.540Z,42.77
2023-05-23T08:00:36.745Z,42.36
2023-05-23T08:03:05.801Z,42.04
2023-05-23T08:05:34.938Z,41.54
2023-05-23T08:08:03.812Z,41.30
2023-05-23T08:10:32.639Z,41.01
2023-05-23T08:13:06.156Z,40.65
2023-05-23T08:15:35.037Z,39.83
2023-05-23T08:18:05.426Z,39.82
2023-05-23T08:20:34.480Z,39.65
2023-05-23T08:23:03.471Z,38.76
2023-05-23T08:25:32.694Z,38.74
2023-05-23T08:28:02.170Z,38.54
2023-05-23T08:30:33.277Z,38.32
2023-05-23T08:33:04.079Z,37.68
2023-05-23T08:35:35.860Z,37.20
2023-05-23T08:38:08.390Z,37.19
2023-05-23T08:40:40.110Z,36.85
2023-05-23T08:43:11.912Z,36.63
2023-05-23T08:45:41.950Z,36.08
2023-05-23T08:48:15.040Z,35.94
2023-05-23T08:50:47.372Z,35.47
2023-05-23T08:53:20.321Z,35.19
2023-05-23T08:55:50.828Z,34.76
2023-05-23T08:58:20.520Z,34.55
2023-05-23T09:00:51.834Z,34.35
2023-05-23T09:03:21.623Z,34.01
2023-05-23T09:05:51.081Z,33.83
2023-05-23T09:08:20.144Z,33.95
2023-05-23T09:10:49.756Z,33.47
2023-05-23T09:13:19.846Z,33.22
2023-05-23T09:16:01.095Z,32.98
2023-05-23T09:18:35.407Z,32.51
2023-05-23T09:21:05.694Z,32.43
2023-05-23T09:23:35.382Z,32.38
2023-05-23T09:26:05.505Z,32.14
2023-05-23T09:28:36.066Z,32.20
2023-05-23T09:31:06.583Z,31.68
2023-05-23T09:33:39.283Z,31.49
2023-05-23T09:36:09.349Z,31.17
2023-05-23T09:38:40.458Z,31.10
2023-05-23T09:41:11.805Z,30.98
2023-05-23T09:43:50.192Z,30.64
2023-05-23T09:46:19.783Z,30.92
2023-05-23T09:48:51.173Z,30.57
2023-05-23T09:51:21.499Z,30.31
2023-05-23T09:53:51.588Z,30.14
2023-05-23T09:56:23.016Z,29.81
2023-05-23T09:58:54.141Z,29.77
2023-05-23T10:01:26.119Z,29.63
2023-05-23T10:03:59.636Z,29.20
2023-05-23T10:06:39.697Z,29.53
2023-05-23T10:09:14.741Z,29.38
2023-05-23T10:12:17.588Z,29.34
2023-05-23T10:14:52.016Z,29.28
2023-05-23T10:17:26.526Z,29.25
2023-05-23T10:20:02.017Z,29.34
2023-05-23T10:22:33.196Z,29.08
2023-05-23T10:25:02.665Z,29.11
2023-05-23T10:27:32.399Z,28.74
2023-05-23T10:30:01.754Z,28.78
2023-05-23T10:32:32.930Z,28.55
2023-05-23T10:35:08.050Z,28.46
2023-05-23T10:37:42.755Z,28.28
2023-05-23T10:40:21.066Z,28.09
2023-05-23T10:43:02.991Z,27.98
2023-05-23T10:45:42.617Z,27.98
2023-05-23T10:48:33.231Z,27.62
2023-05-23T10:51:07.423Z,27.74
2023-05-23T10:53:38.037Z,27.68
2023-05-23T10:56:08.013Z,27.68
2023-05-23T10:58:39.179Z,27.73
2023-05-23T11:01:09.944Z,27.75
2023-05-23T11:03:54.010Z,27.55
2023-05-23T11:06:32.616Z,27.79
2023-05-23T11:09:07.776Z,27.79
2023-05-23T11:12:05.052Z,28.12
2023-05-23T11:14:53.269Z,27.74
2023-05-23T11:17:34.089Z,28.08
2023-05-23T11:20:06.176Z,28.06
2023-05-23T11:22:36.335Z,28.26
2023-05-23T11:25:09.292Z,28.18
2023-05-23T11:27:40.036Z,28.36
2023-05-23T11:30:12.946Z,28.37
2023-05-23T11:32:42.961Z,28.36
2023-05-23T11:35:12.151Z,28.52
2023-05-23T11:37:41.259Z,28.78
2023-05-23T11:40:31.598Z,28.90
2023-05-23T11:43:03.159Z,29.15
2023-05-23T11:45:33.374Z,29.24
2023-05-23T11:48:07.596Z,29.14
2023-05-23T11:50:44.961Z,29.34
2023-05-23T11:53:16.929Z,29.43
2023-05-23T11:55:52.568Z,29.38
2023-05-23T11:58:22.623Z,29.58
2023-05-23T12:00:54.438Z,29.44
2023-05-23T12:03:24.526Z,29.52
2023-05-23T12:05:54.603Z,29.43
2023-05-23T12:08:24.642Z,29.40
2023-05-23T12:10:58.554Z,29.58
2023-05-23T12:13:30.265Z,29.45
2023-05-23T12:16:01.656Z,29.75
2023-05-23T12:18:32.608Z,29.73
2023-05-23T12:21:02.578Z,29.70
2023-05-23T12:23:34.694Z,29.73
2023-05-23T12:26:07.147Z,29.80
2023-05-23T12:28:39.347Z,29.71
2023-05-23T12:31:13.609Z,29.73
2023-05-23T12:33:45.278Z,29.74
2023-05-23T12:36:14.787Z,29.81
2023-05-23T12:38:45.197Z,29.83
2023-05-23T12:41:19.001Z,29.86
2023-05-23T12:43:54.706Z,29.91
2023-05-23T12:46:25.809Z,29.95
2023-05-23T12:48:55.151Z,30.04
2023-05-23T12:51:24.242Z,30.08
2023-05-23T12:53:54.154Z,30.15
2023-05-23T12:56:23.083Z,30.04
2023-05-23T12:58:53.292Z,29.89
2023-05-23T13:01:22.589Z,29.96
2023-05-23T13:03:51.729Z,29.88
2023-05-23T13:06:21.154Z,29.90
2023-05-23T13:08:50.617Z,30.02
2023-05-23T13:11:19.874Z,30.05
2023-05-23T13:13:48.857Z,29.77
2023-05-23T13:16:17.838Z,29.99
2023-05-23T13:18:47.055Z,30.22
2023-05-23T13:21:16.143Z,30.27
2023-05-23T13:23:45.014Z,30.55
2023-05-23T13:26:14.818Z,30.43
2023-05-23T13:28:43.794Z,30.42
2023-05-23T13:31:12.925Z,30.55
2023-05-23T13:33:42.084Z,30.73
2023-05-23T13:36:11.143Z,30.82
2023-05-23T13:38:40.198Z,30.80
2023-05-23T13:41:09.369Z,30.64
2023-05-23T13:43:38.552Z,30.89
2023-05-23T13:46:07.809Z,30.85
2023-05-23T13:48:36.858Z,30.82
2023-05-23T13:51:06.369Z,30.95
2023-05-23T13:53:35.461Z,31.09
2023-05-23T13:56:04.541Z,31.43
2023-05-23T13:58:33.573Z,31.50
2023-05-23T14:01:02.624Z,31.70
2023-05-23T14:03:31.607Z,31.65
2023-05-23T14:06:00.661Z,32.04
2023-05-23T14:08:29.649Z,31.94
2023-05-23T14:10:58.636Z,31.96
2023-05-23T14:13:27.660Z,32.26
2023-05-23T14:15:56.880Z,32.20
2023-05-23T14:18:25.911Z,32.30
2023-05-23T14:20:54.927Z,32.66
2023-05-23T14:23:24.033Z,32.74
2023-05-23T14:25:52.863Z,32.69
2023-05-23T14:28:22.120Z,33.03
2023-05-23T14:30:51.120Z,33.01
2023-05-23T14:33:20.409Z,33.17
2023-05-23T14:35:50.345Z,33.15
2023-05-23T14:38:19.934Z,33.08
2023-05-23T14:40:48.934Z,33.15
2023-05-23T14:43:18.512Z,33.21
2023-05-23T14:45:47.743Z,33.29
2023-05-23T14:48:16.818Z,33.23
2023-05-23T14:50:45.994Z,33.47
2023-05-23T14:53:15.316Z,33.35
2023-05-23T14:55:44.290Z,33.45
2023-05-23T14:58:13.481Z,33.72
2023-05-23T15:00:42.512Z,34.02
2023-05-23T15:03:11.852Z,34.16
2023-05-23T15:05:41.170Z,34.21
2023-05-23T15:08:10.380Z,34.41
2023-05-23T15:10:39.361Z,34.56
2023-05-23T15:13:08.568Z,34.67
2023-05-23T15:15:38.033Z,35.11
2023-05-23T15:18:09.565Z,35.06
2023-05-23T15:20:38.737Z,35.48
2023-05-23T15:23:08.106Z,35.33
2023-05-23T15:25:49.656Z,35.25
2023-05-23T15:28:19.155Z,35.48
2023-05-23T15:30:49.056Z,35.43
2023-05-23T15:33:18.410Z,35.50
2023-05-23T15:35:47.637Z,35.67
2023-05-23T15:38:19.906Z,35.58
2023-05-23T15:40:52.071Z,35.54
2023-05-23T15:43:21.109Z,35.25
2023-05-23T15:45:52.301Z,35.29
2023-05-23T15:48:21.478Z,35.23
2023-05-23T15:50:50.645Z,35.13
2023-05-23T15:53:20.226Z,35.24
2023-05-23T15:55:49.573Z,34.83
2023-05-23T15:58:18.481Z,34.97
2023-05-23T16:00:47.460Z,35.03
2023-05-23T16:03:16.514Z,34.76
2023-05-23T16:05:46.037Z,34.73
2023-05-23T16:08:15.197Z,34.65
2023-05-23T16:10:44.148Z,34.80
2023-05-23T16:13:13.211Z,34.44
2023-05-23T16:15:42.699Z,34.68
2023-05-23T16:18:12.125Z,34.65
2023-05-23T16:20:41.149Z,34.53
2023-05-23T16:23:10.149Z,34.66
2023-05-23T16:25:39.140Z,34.50
2023-05-23T16:28:08.440Z,34.37
2023-05-23T16:30:37.378Z,34.61
2023-05-23T16:33:06.501Z,34.52
2023-05-23T16:35:35.695Z,34.41
2023-05-23T16:38:05.140Z,34.30
2023-05-23T16:40:34.058Z,34.49
2023-05-23T16:43:03.574Z,34.24
2023-05-23T16:45:32.664Z,34.48
2023-05-23T16:48:01.844Z,34.43
2023-05-23T16:50:30.842Z,34.41
2023-05-23T16:53:00.141Z,34.38
2023-05-23T16:55:29.171Z,34.32
2023-05-23T16:57:58.625Z,34.46
2023-05-23T17:00:27.892Z,34.69
2023-05-23T17:02:56.973Z,34.74
2023-05-23T17:05:26.447Z,34.49
2023-05-23T17:07:55.268Z,34.55
2023-05-23T17:10:24.169Z,34.72
2023-05-23T17:12:53.109Z,34.80
2023-05-23T17:15:22.284Z,34.89
2023-05-23T17:17:51.406Z,34.77
2023-05-23T17:20:23.545Z,34.79
2023-05-23T17:22:52.655Z,34.49
2023-05-23T17:25:21.961Z,34.75
2023-05-23T17:27:50.930Z,34.39
2023-05-23T17:30:20.262Z,34.73
2023-05-23T17:32:49.374Z,34.65
2023-05-23T17:35:18.555Z,34.57
2023-05-23T17:37:47.583Z,34.63
2023-05-23T17:40:17.091Z,34.79
2023-05-23T17:42:46.226Z,34.57
2023-05-23T17:45:15.264Z,34.50
2023-05-23T17:47:44.394Z,34.71
2023-05-23T17:50:13.646Z,34.52
2023-05-23T17:52:42.663Z,34.66
2023-05-23T17:55:11.859Z,34.68
2023-05-23T17:57:40.793Z,34.69
2023-05-23T18:00:12.800Z,34.85
2023-05-23T18:02:41.859Z,34.68
2023-05-23T18:05:11.061Z,34.91
2023-05-23T18:07:40.230Z,35.00
2023-05-23T18:10:11.061Z,35.13
2023-05-23T18:12:39.904Z,35.36
2023-05-23T18:15:10.792Z,35.16
2023-05-23T18:17:40.217Z,35.46
2023-05-23T18:20:11.281Z,35.29
2023-05-23T18:22:40.787Z,35.52
2023-05-23T18:25:11.312Z,35.72
2023-05-23T18:27:40.284Z,35.86
2023-05-23T18:30:11.163Z,36.11
2023-05-23T18:32:40.244Z,36.09
2023-05-23T18:35:10.584Z,36.15
2023-05-23T18:37:39.733Z,36.33
2023-05-23T18:40:10.565Z,36.60
2023-05-23T18:42:39.590Z,36.54
2023-05-23T18:45:10.949Z,36.84
2023-05-23T18:47:40.424Z,36.73
2023-05-23T18:50:11.252Z,36.98
2023-05-23T18:52:40.405Z,37.08
2023-05-23T18:55:11.278Z,37.20
2023-05-23T18:57:40.423Z,37.22
2023-05-23T19:00:11.659Z,37.45
2023-05-23T19:02:43.787Z,37.50
2023-05-23T19:05:12.923Z,37.44
2023-05-23T19:07:41.901Z,37.69
2023-05-23T19:10:12.299Z,37.58
2023-05-23T19:12:41.256Z,37.82
2023-05-23T19:15:11.660Z,38.32
2023-05-23T19:17:41.038Z,38.63
2023-05-23T19:20:12.360Z,38.90
2023-05-23T19:22:50.912Z,39.28
2023-05-23T19:25:22.587Z,39.49
2023-05-23T19:27:51.915Z,40.00
2023-05-23T19:30:20.857Z,40.23
2023-05-23T19:32:50.439Z,40.50
2023-05-23T19:35:19.407Z,40.80
2023-05-23T19:37:48.878Z,41.12
2023-05-23T19:40:20.815Z,41.28
2023-05-23T19:42:49.975Z,41.63
2023-05-23T19:45:19.218Z,41.78
2023-05-23T19:47:48.489Z,41.89
2023-05-23T19:50:17.363Z,42.01
2023-05-23T19:52:46.635Z,42.27
2023-05-23T19:55:15.789Z,42.41
2023-05-23T19:57:44.913Z,42.67
2023-05-23T20:00:15.849Z,42.89
2023-05-23T20:02:46.655Z,43.08
2023-05-23T20:05:15.849Z,43.31
2023-05-23T20:07:44.858Z,43.47
2023-05-23T20:10:14.007Z,43.56
2023-05-23T20:12:43.021Z,43.64
2023-05-23T20:15:12.823Z,43.83
2023-05-23T20:17:41.848Z,43.84
2023-05-23T20:20:11.992Z,44.09
2023-05-23T20:22:41.040Z,44.08
2023-05-23T20:25:10.592Z,44.31
2023-05-23T20:27:39.603Z,44.62
2023-05-23T20:30:11.564Z,44.68
2023-05-23T20:32:42.125Z,44.82
2023-05-23T20:35:11.345Z,45.11
2023-05-23T20:37:40.365Z,45.24
2023-05-23T20:40:12.353Z,45.39
2023-05-23T20:42:44.441Z,45.42
2023-05-23T20:45:14.950Z,45.56
2023-05-23T20:47:43.969Z,45.78
2023-05-23T20:50:14.115Z,45.89
2023-05-23T20:52:43.394Z,46.09
2023-05-23T20:55:13.664Z,46.14
2023-05-23T20:57:42.974Z,46.32
2023-05-23T21:00:14.219Z,46.32
2023-05-23T21:02:43.775Z,46.39
2023-05-23T21:05:13.134Z,46.57
2023-05-23T21:07:42.047Z,46.53
2023-05-23T21:10:11.793Z,46.69
2023-05-23T21:12:46.355Z,46.70
2023-05-23T21:15:15.555Z,46.65
2023-05-23T21:17:44.791Z,46.80
2023-05-23T21:20:13.935Z,46.82
2023-05-23T21:22:43.135Z,47.23
2023-05-23T21:25:11.948Z,47.23
2023-05-23T21:27:41.077Z,47.26
2023-05-23T21:30:12.043Z,47.21
2023-05-23T21:32:40.984Z,47.58
2023-05-23T21:35:10.822Z,47.69
2023-05-23T21:37:40.038Z,47.73
2023-05-23T21:40:11.437Z,47.98
2023-05-23T21:42:40.454Z,47.99
2023-05-23T21:45:11.029Z,48.10
2023-05-23T21:47:40.191Z,48.15
2023-05-23T21:50:11.050Z,48.28
2023-05-23T21:52:39.971Z,48.26
2023-05-23T21:55:09.415Z,48.55
2023-05-23T21:57:38.373Z,48.61
2023-05-23T22:00:11.922Z,48.45
2023-05-23T22:02:41.138Z,48.83
2023-05-23T22:05:11.076Z,48.86
2023-05-23T22:07:40.283Z,48.95
2023-05-23T22:10:11.135Z,49.04
2023-05-23T22:12:40.193Z,48.82
2023-05-23T22:15:11.385Z,49.08
2023-05-23T22:17:42.800Z,49.18
2023-05-23T22:20:13.989Z,48.98
2023-05-23T22:22:43.058Z,49.18
2023-05-23T22:25:12.081Z,49.35
2023-05-23T22:27:41.111Z,49.38
2023-05-23T22:30:11.454Z,49.41
2023-05-23T22:32:40.540Z,49.75
2023-05-23T22:35:10.643Z,49.92
2023-05-23T22:37:39.867Z,49.82
2023-05-23T22:40:10.503Z,49.90
2023-05-23T22:42:39.598Z,50.11
2023-05-23T22:45:10.664Z,50.27
2023-05-23T22:47:40.885Z,50.16
2023-05-23T22:50:11.625Z,50.04
2023-05-23T22:52:40.732Z,50.47
2023-05-23T22:55:10.807Z,50.37
2023-05-23T22:57:39.896Z,50.61
2023-05-23T23:00:12.906Z,50.55
2023-05-23T23:02:43.842Z,50.69
2023-05-23T23:05:12.922Z,50.89
2023-05-23T23:07:41.964Z,51.17
2023-05-23T23:10:11.293Z,51.16
2023-05-23T23:12:41.111Z,50.97
2023-05-23T23:15:11.338Z,51.37
2023-05-23T23:17:40.629Z,51.40
2023-05-23T23:20:12.142Z,51.41
2023-05-23T23:22:41.505Z,51.46
2023-05-23T23:25:11.480Z,51.67
2023-05-23T23:27:41.219Z,51.55
2023-05-23T23:30:11.831Z,51.85
2023-05-23T23:32:41.091Z,51.77
2023-05-23T23:35:10.404Z,51.81
2023-05-23T23:37:39.838Z,51.90
2023-05-23T23:40:10.713Z,51.79
2023-05-23T23:42:39.863Z,52.08
2023-05-23T23:45:10.708Z,52.20
2023-05-23T23:47:39.789Z,52.16
2023-05-23T23:50:09.905Z,52.48
2023-05-23T23:52:39.057Z,52.50
2023-05-23T23:55:09.068Z,52.60
2023-05-23T23:57:38.308Z,52.60
